sensor_id;sensor_type;location;lat;lon;timestamp;P1;durP1;ratioP1;P2;durP2;ratioP2
60979;SDS011;46851;49.160;8.980;2023-11-19T00:00:44;6.00;;;3.58;;
60979;SDS011;46851;49.160;8.980;2023-11-19T00:03:13;6.50;;;3.65;;
60979;SDS011;46851;49.160;8.980;2023-11-19T00:05:42;5.78;;;4.20;;
60979;SDS011;46851;49.160;8.980;2023-11-19T00:08:09;4.72;;;3.70;;
60979;SDS011;46851;49.160;8.980;2023-11-19T00:10:35;5.68;;;3.50;;
60979;SDS011;46851;49.160;8.980;2023-11-19T00:13:02;5.63;;;4.10;;
60979;SDS011;46851;49.160;8.980;2023-11-19T00:15:28;6.30;;;3.78;;
60979;SDS011;46851;49.160;8.980;2023-11-19T00:17:54;5.95;;;4.00;;
60979;SDS011;46851;49.160;8.980;2023-11-19T00:20:20;6.10;;;4.10;;
60979;SDS011;46851;49.160;8.980;2023-11-19T00:22:49;5.30;;;3.95;;
60979;SDS011;46851;49.160;8.980;2023-11-19T00:25:18;5.47;;;3.67;;
60979;SDS011;46851;49.160;8.980;2023-11-19T00:27:44;7.72;;;4.43;;
60979;SDS011;46851;49.160;8.980;2023-11-19T00:30:11;8.40;;;4.00;;
60979;SDS011;46851;49.160;8.980;2023-11-19T00:32:37;7.50;;;4.00;;
60979;SDS011;46851;49.160;8.980;2023-11-19T00:35:05;7.40;;;3.90;;
60979;SDS011;46851;49.160;8.980;2023-11-19T00:37:31;9.98;;;4.53;;
60979;SDS011;46851;49.160;8.980;2023-11-19T00:39:57;9.98;;;4.78;;
60979;SDS011;46851;49.160;8.980;2023-11-19T00:42:23;5.72;;;4.45;;
60979;SDS011;46851;49.160;8.980;2023-11-19T00:44:50;6.75;;;4.68;;
60979;SDS011;46851;49.160;8.980;2023-11-19T00:47:17;10.13;;;5.00;;
60979;SDS011;46851;49.160;8.980;2023-11-19T00:49:45;6.63;;;4.88;;
60979;SDS011;46851;49.160;8.980;2023-11-19T00:52:12;7.38;;;4.22;;
60979;SDS011;46851;49.160;8.980;2023-11-19T00:54:37;6.93;;;4.32;;
60979;SDS011;46851;49.160;8.980;2023-11-19T00:57:04;6.65;;;4.60;;
60979;SDS011;46851;49.160;8.980;2023-11-19T00:59:31;7.03;;;4.18;;
60979;SDS011;46851;49.160;8.980;2023-11-19T01:01:57;7.68;;;4.07;;
60979;SDS011;46851;49.160;8.980;2023-11-19T01:04:28;6.38;;;4.43;;
60979;SDS011;46851;49.160;8.980;2023-11-19T01:06:54;6.00;;;4.45;;
60979;SDS011;46851;49.160;8.980;2023-11-19T01:09:20;6.68;;;4.55;;
60979;SDS011;46851;49.160;8.980;2023-11-19T01:11:46;8.77;;;4.72;;
60979;SDS011;46851;49.160;8.980;2023-11-19T01:14:12;8.38;;;4.88;;
60979;SDS011;46851;49.160;8.980;2023-11-19T01:16:38;7.50;;;4.93;;
60979;SDS011;46851;49.160;8.980;2023-11-19T01:19:04;11.00;;;5.07;;
60979;SDS011;46851;49.160;8.980;2023-11-19T01:21:30;9.82;;;5.60;;
60979;SDS011;46851;49.160;8.980;2023-11-19T01:23:59;7.70;;;4.88;;
60979;SDS011;46851;49.160;8.980;2023-11-19T01:26:31;7.32;;;4.50;;
60979;SDS011;46851;49.160;8.980;2023-11-19T01:28:57;7.53;;;4.40;;
60979;SDS011;46851;49.160;8.980;2023-11-19T01:31:23;9.73;;;4.25;;
60979;SDS011;46851;49.160;8.980;2023-11-19T01:33:49;8.73;;;4.63;;
60979;SDS011;46851;49.160;8.980;2023-11-19T01:36:15;9.52;;;5.05;;
60979;SDS011;46851;49.160;8.980;2023-11-19T01:38:41;8.65;;;5.25;;
60979;SDS011;46851;49.160;8.980;2023-11-19T01:41:07;7.45;;;5.57;;
60979;SDS011;46851;49.160;8.980;2023-11-19T01:43:34;7.90;;;5.93;;
60979;SDS011;46851;49.160;8.980;2023-11-19T01:46:04;7.75;;;5.35;;
60979;SDS011;46851;49.160;8.980;2023-11-19T01:48:31;9.05;;;5.90;;
60979;SDS011;46851;49.160;8.980;2023-11-19T01:50:58;9.50;;;6.35;;
60979;SDS011;46851;49.160;8.980;2023-11-19T01:53:24;10.40;;;6.25;;
60979;SDS011;46851;49.160;8.980;2023-11-19T01:55:50;8.40;;;6.00;;
60979;SDS011;46851;49.160;8.980;2023-11-19T01:58:17;12.88;;;6.32;;
60979;SDS011;46851;49.160;8.980;2023-11-19T02:00:44;9.02;;;6.55;;
60979;SDS011;46851;49.160;8.980;2023-11-19T02:03:10;10.48;;;6.13;;
60979;SDS011;46851;49.160;8.980;2023-11-19T02:05:37;9.70;;;5.85;;
60979;SDS011;46851;49.160;8.980;2023-11-19T02:08:04;11.45;;;6.82;;
60979;SDS011;46851;49.160;8.980;2023-11-19T02:10:30;9.40;;;6.70;;
60979;SDS011;46851;49.160;8.980;2023-11-19T02:12:57;8.82;;;6.30;;
60979;SDS011;46851;49.160;8.980;2023-11-19T02:15:23;9.10;;;6.30;;
60979;SDS011;46851;49.160;8.980;2023-11-19T02:17:49;10.13;;;6.97;;
60979;SDS011;46851;49.160;8.980;2023-11-19T02:20:16;10.20;;;6.65;;
60979;SDS011;46851;49.160;8.980;2023-11-19T02:22:44;10.88;;;6.97;;
60979;SDS011;46851;49.160;8.980;2023-11-19T02:25:15;9.95;;;6.75;;
60979;SDS011;46851;49.160;8.980;2023-11-19T02:30:15;9.93;;;6.72;;
60979;SDS011;46851;49.160;8.980;2023-11-19T02:32:42;10.93;;;6.60;;
60979;SDS011;46851;49.160;8.980;2023-11-19T02:35:08;12.02;;;7.10;;
60979;SDS011;46851;49.160;8.980;2023-11-19T02:37:34;10.77;;;7.13;;
60979;SDS011;46851;49.160;8.980;2023-11-19T02:40:00;11.15;;;6.90;;
60979;SDS011;46851;49.160;8.980;2023-11-19T02:42:28;12.15;;;7.25;;
60979;SDS011;46851;49.160;8.980;2023-11-19T02:44:54;11.65;;;6.75;;
60979;SDS011;46851;49.160;8.980;2023-11-19T02:47:23;10.65;;;7.15;;
60979;SDS011;46851;49.160;8.980;2023-11-19T02:49:49;11.10;;;6.93;;
60979;SDS011;46851;49.160;8.980;2023-11-19T02:52:16;10.95;;;6.80;;
60979;SDS011;46851;49.160;8.980;2023-11-19T02:54:42;13.70;;;7.80;;
60979;SDS011;46851;49.160;8.980;2023-11-19T02:57:08;11.00;;;7.78;;
60979;SDS011;46851;49.160;8.980;2023-11-19T02:59:37;13.60;;;7.47;;
60979;SDS011;46851;49.160;8.980;2023-11-19T03:02:04;11.88;;;7.38;;
60979;SDS011;46851;49.160;8.980;2023-11-19T03:04:32;16.08;;;7.10;;
60979;SDS011;46851;49.160;8.980;2023-11-19T03:06:58;11.90;;;7.82;;
60979;SDS011;46851;49.160;8.980;2023-11-19T03:09:24;12.00;;;7.15;;
60979;SDS011;46851;49.160;8.980;2023-11-19T03:11:50;14.50;;;8.38;;
60979;SDS011;46851;49.160;8.980;2023-11-19T03:14:16;12.02;;;7.50;;
60979;SDS011;46851;49.160;8.980;2023-11-19T03:16:46;11.52;;;7.40;;
60979;SDS011;46851;49.160;8.980;2023-11-19T03:19:12;12.57;;;7.57;;
60979;SDS011;46851;49.160;8.980;2023-11-19T03:21:41;12.60;;;7.75;;
60979;SDS011;46851;49.160;8.980;2023-11-19T03:24:07;13.32;;;7.60;;
60979;SDS011;46851;49.160;8.980;2023-11-19T03:26:34;13.25;;;8.15;;
60979;SDS011;46851;49.160;8.980;2023-11-19T03:29:04;11.65;;;6.97;;
60979;SDS011;46851;49.160;8.980;2023-11-19T03:31:30;11.75;;;7.32;;
60979;SDS011;46851;49.160;8.980;2023-11-19T03:33:56;12.93;;;7.38;;
60979;SDS011;46851;49.160;8.980;2023-11-19T03:36:22;11.95;;;7.38;;
60979;SDS011;46851;49.160;8.980;2023-11-19T03:38:48;11.90;;;6.82;;
60979;SDS011;46851;49.160;8.980;2023-11-19T03:41:15;13.10;;;7.30;;
60979;SDS011;46851;49.160;8.980;2023-11-19T03:46:43;8.10;;;5.50;;
60979;SDS011;46851;49.160;8.980;2023-11-19T03:49:09;8.95;;;4.82;;
60979;SDS011;46851;49.160;8.980;2023-11-19T03:51:35;8.52;;;4.80;;
60979;SDS011;46851;49.160;8.980;2023-11-19T03:54:01;7.30;;;3.38;;
60979;SDS011;46851;49.160;8.980;2023-11-19T03:56:27;4.35;;;2.13;;
60979;SDS011;46851;49.160;8.980;2023-11-19T03:58:53;3.05;;;1.95;;
60979;SDS011;46851;49.160;8.980;2023-11-19T04:01:19;9.40;;;3.75;;
60979;SDS011;46851;49.160;8.980;2023-11-19T04:03:45;3.10;;;1.77;;
60979;SDS011;46851;49.160;8.980;2023-11-19T04:06:11;2.17;;;1.30;;
60979;SDS011;46851;49.160;8.980;2023-11-19T04:08:37;0.85;;;0.70;;
60979;SDS011;46851;49.160;8.980;2023-11-19T04:11:04;2.30;;;0.68;;
60979;SDS011;46851;49.160;8.980;2023-11-19T04:13:33;2.00;;;0.68;;
60979;SDS011;46851;49.160;8.980;2023-11-19T04:16:01;0.60;;;0.60;;
60979;SDS011;46851;49.160;8.980;2023-11-19T04:18:27;0.77;;;0.70;;
60979;SDS011;46851;49.160;8.980;2023-11-19T04:20:53;1.95;;;0.73;;
60979;SDS011;46851;49.160;8.980;2023-11-19T04:23:18;2.65;;;0.80;;
60979;SDS011;46851;49.160;8.980;2023-11-19T04:25:45;1.67;;;0.73;;
60979;SDS011;46851;49.160;8.980;2023-11-19T04:28:11;3.08;;;0.90;;
60979;SDS011;46851;49.160;8.980;2023-11-19T04:30:37;1.13;;;0.90;;
60979;SDS011;46851;49.160;8.980;2023-11-19T04:33:03;3.30;;;0.80;;
60979;SDS011;46851;49.160;8.980;2023-11-19T04:35:29;1.48;;;0.90;;
60979;SDS011;46851;49.160;8.980;2023-11-19T04:37:55;1.60;;;0.90;;
60979;SDS011;46851;49.160;8.980;2023-11-19T04:40:22;1.98;;;0.90;;
60979;SDS011;46851;49.160;8.980;2023-11-19T04:42:48;1.27;;;0.90;;
60979;SDS011;46851;49.160;8.980;2023-11-19T04:45:14;2.42;;;1.13;;
60979;SDS011;46851;49.160;8.980;2023-11-19T04:47:41;2.08;;;0.98;;
60979;SDS011;46851;49.160;8.980;2023-11-19T04:50:07;2.55;;;0.90;;
60979;SDS011;46851;49.160;8.980;2023-11-19T04:52:37;1.83;;;1.02;;
60979;SDS011;46851;49.160;8.980;2023-11-19T04:57:31;2.28;;;0.90;;
60979;SDS011;46851;49.160;8.980;2023-11-19T04:59:57;2.03;;;0.95;;
60979;SDS011;46851;49.160;8.980;2023-11-19T05:02:24;1.58;;;1.13;;
60979;SDS011;46851;49.160;8.980;2023-11-19T05:04:50;5.60;;;1.00;;
60979;SDS011;46851;49.160;8.980;2023-11-19T05:07:16;0.85;;;0.70;;
60979;SDS011;46851;49.160;8.980;2023-11-19T05:09:42;0.98;;;0.82;;
60979;SDS011;46851;49.160;8.980;2023-11-19T05:12:08;1.17;;;0.90;;
60979;SDS011;46851;49.160;8.980;2023-11-19T05:14:37;1.17;;;0.90;;
60979;SDS011;46851;49.160;8.980;2023-11-19T05:17:03;2.85;;;0.90;;
60979;SDS011;46851;49.160;8.980;2023-11-19T05:19:29;2.65;;;1.00;;
60979;SDS011;46851;49.160;8.980;2023-11-19T05:21:55;0.70;;;0.70;;
60979;SDS011;46851;49.160;8.980;2023-11-19T05:24:21;1.30;;;0.73;;
60979;SDS011;46851;49.160;8.980;2023-11-19T05:26:48;0.82;;;0.75;;
60979;SDS011;46851;49.160;8.980;2023-11-19T05:29:15;3.95;;;0.70;;
60979;SDS011;46851;49.160;8.980;2023-11-19T05:31:42;2.08;;;0.82;;
60979;SDS011;46851;49.160;8.980;2023-11-19T05:34:08;1.65;;;0.70;;
60979;SDS011;46851;49.160;8.980;2023-11-19T05:36:34;3.80;;;0.80;;
60979;SDS011;46851;49.160;8.980;2023-11-19T05:39:00;2.88;;;1.00;;
60979;SDS011;46851;49.160;8.980;2023-11-19T05:41:26;1.02;;;0.80;;
60979;SDS011;46851;49.160;8.980;2023-11-19T05:43:52;1.55;;;0.80;;
60979;SDS011;46851;49.160;8.980;2023-11-19T05:46:18;1.25;;;0.90;;
60979;SDS011;46851;49.160;8.980;2023-11-19T05:48:44;0.95;;;0.85;;
60979;SDS011;46851;49.160;8.980;2023-11-19T05:51:11;1.15;;;0.80;;
60979;SDS011;46851;49.160;8.980;2023-11-19T05:53:41;3.33;;;1.20;;
60979;SDS011;46851;49.160;8.980;2023-11-19T05:56:08;1.25;;;0.70;;
60979;SDS011;46851;49.160;8.980;2023-11-19T05:58:34;1.23;;;0.90;;
60979;SDS011;46851;49.160;8.980;2023-11-19T06:01:01;1.73;;;0.90;;
60979;SDS011;46851;49.160;8.980;2023-11-19T06:03:28;1.05;;;0.80;;
60979;SDS011;46851;49.160;8.980;2023-11-19T06:05:54;1.13;;;0.70;;
60979;SDS011;46851;49.160;8.980;2023-11-19T06:08:20;1.42;;;0.70;;
60979;SDS011;46851;49.160;8.980;2023-11-19T06:10:46;0.70;;;0.70;;
60979;SDS011;46851;49.160;8.980;2023-11-19T06:13:14;1.35;;;0.93;;
60979;SDS011;46851;49.160;8.980;2023-11-19T06:15:43;1.15;;;0.57;;
60979;SDS011;46851;49.160;8.980;2023-11-19T06:18:10;1.02;;;0.80;;
60979;SDS011;46851;49.160;8.980;2023-11-19T06:20:40;3.35;;;0.70;;
60979;SDS011;46851;49.160;8.980;2023-11-19T06:23:09;1.95;;;0.80;;
60979;SDS011;46851;49.160;8.980;2023-11-19T06:25:35;0.80;;;0.60;;
60979;SDS011;46851;49.160;8.980;2023-11-19T06:28:01;0.50;;;0.50;;
60979;SDS011;46851;49.160;8.980;2023-11-19T06:30:27;1.17;;;0.57;;
60979;SDS011;46851;49.160;8.980;2023-11-19T06:32:54;1.40;;;0.50;;
60979;SDS011;46851;49.160;8.980;2023-11-19T06:35:20;1.48;;;0.77;;
60979;SDS011;46851;49.160;8.980;2023-11-19T06:37:46;0.50;;;0.40;;
60979;SDS011;46851;49.160;8.980;2023-11-19T06:40:13;1.38;;;0.40;;
60979;SDS011;46851;49.160;8.980;2023-11-19T06:42:40;0.40;;;0.40;;
60979;SDS011;46851;49.160;8.980;2023-11-19T06:45:09;0.80;;;0.52;;
60979;SDS011;46851;49.160;8.980;2023-11-19T06:47:35;0.60;;;0.50;;
60979;SDS011;46851;49.160;8.980;2023-11-19T06:50:01;1.00;;;0.43;;
60979;SDS011;46851;49.160;8.980;2023-11-19T06:52:30;1.55;;;0.50;;
60979;SDS011;46851;49.160;8.980;2023-11-19T06:54:59;1.80;;;0.50;;
60979;SDS011;46851;49.160;8.980;2023-11-19T06:57:25;1.43;;;0.40;;
60979;SDS011;46851;49.160;8.980;2023-11-19T06:59:52;1.67;;;0.50;;
60979;SDS011;46851;49.160;8.980;2023-11-19T07:02:18;0.98;;;0.60;;
60979;SDS011;46851;49.160;8.980;2023-11-19T07:04:44;4.65;;;1.63;;
60979;SDS011;46851;49.160;8.980;2023-11-19T07:07:10;3.10;;;0.93;;
60979;SDS011;46851;49.160;8.980;2023-11-19T07:09:36;1.95;;;0.40;;
60979;SDS011;46851;49.160;8.980;2023-11-19T07:12:03;0.55;;;0.30;;
60979;SDS011;46851;49.160;8.980;2023-11-19T07:14:29;1.15;;;0.80;;
60979;SDS011;46851;49.160;8.980;2023-11-19T07:16:56;0.63;;;0.60;;
60979;SDS011;46851;49.160;8.980;2023-11-19T07:19:25;1.67;;;1.10;;
60979;SDS011;46851;49.160;8.980;2023-11-19T07:21:51;4.53;;;1.20;;
60979;SDS011;46851;49.160;8.980;2023-11-19T07:24:19;1.83;;;0.65;;
60979;SDS011;46851;49.160;8.980;2023-11-19T07:26:46;1.70;;;0.60;;
60979;SDS011;46851;49.160;8.980;2023-11-19T07:29:13;1.10;;;0.65;;
60979;SDS011;46851;49.160;8.980;2023-11-19T07:31:43;1.33;;;0.73;;
60979;SDS011;46851;49.160;8.980;2023-11-19T07:34:10;4.03;;;0.60;;
60979;SDS011;46851;49.160;8.980;2023-11-19T07:36:36;0.65;;;0.40;;
60979;SDS011;46851;49.160;8.980;2023-11-19T07:39:03;1.95;;;0.50;;
60979;SDS011;46851;49.160;8.980;2023-11-19T07:41:30;0.50;;;0.50;;
60979;SDS011;46851;49.160;8.980;2023-11-19T07:43:56;0.63;;;0.50;;
60979;SDS011;46851;49.160;8.980;2023-11-19T07:46:22;2.38;;;0.77;;
60979;SDS011;46851;49.160;8.980;2023-11-19T07:48:48;1.77;;;0.75;;
60979;SDS011;46851;49.160;8.980;2023-11-19T07:51:14;1.35;;;0.50;;
60979;SDS011;46851;49.160;8.980;2023-11-19T07:53:43;1.08;;;0.60;;
60979;SDS011;46851;49.160;8.980;2023-11-19T07:56:09;0.75;;;0.40;;
60979;SDS011;46851;49.160;8.980;2023-11-19T07:58:35;1.88;;;0.60;;
60979;SDS011;46851;49.160;8.980;2023-11-19T08:01:05;3.05;;;0.52;;
60979;SDS011;46851;49.160;8.980;2023-11-19T08:03:31;1.30;;;0.40;;
60979;SDS011;46851;49.160;8.980;2023-11-19T08:05:59;0.60;;;0.43;;
60979;SDS011;46851;49.160;8.980;2023-11-19T08:08:29;2.20;;;1.10;;
60979;SDS011;46851;49.160;8.980;2023-11-19T08:10:57;3.03;;;0.80;;
60979;SDS011;46851;49.160;8.980;2023-11-19T08:13:24;2.80;;;0.93;;
60979;SDS011;46851;49.160;8.980;2023-11-19T08:15:50;1.40;;;0.60;;
60979;SDS011;46851;49.160;8.980;2023-11-19T08:18:16;0.85;;;0.60;;
60979;SDS011;46851;49.160;8.980;2023-11-19T08:20:43;2.30;;;0.43;;
60979;SDS011;46851;49.160;8.980;2023-11-19T08:23:09;1.48;;;0.60;;
60979;SDS011;46851;49.160;8.980;2023-11-19T08:25:36;1.25;;;0.70;;
60979;SDS011;46851;49.160;8.980;2023-11-19T08:28:02;3.28;;;0.45;;
60979;SDS011;46851;49.160;8.980;2023-11-19T08:30:28;4.13;;;1.98;;
60979;SDS011;46851;49.160;8.980;2023-11-19T08:32:55;2.15;;;0.40;;
60979;SDS011;46851;49.160;8.980;2023-11-19T08:35:27;0.77;;;0.47;;
60979;SDS011;46851;49.160;8.980;2023-11-19T08:37:53;0.70;;;0.50;;
60979;SDS011;46851;49.160;8.980;2023-11-19T08:40:19;1.63;;;0.68;;
60979;SDS011;46851;49.160;8.980;2023-11-19T08:42:45;1.27;;;0.50;;
60979;SDS011;46851;49.160;8.980;2023-11-19T08:45:14;2.42;;;0.50;;
60979;SDS011;46851;49.160;8.980;2023-11-19T08:47:43;0.63;;;0.40;;
60979;SDS011;46851;49.160;8.980;2023-11-19T08:50:10;1.00;;;0.50;;
60979;SDS011;46851;49.160;8.980;2023-11-19T08:52:37;3.00;;;0.73;;
60979;SDS011;46851;49.160;8.980;2023-11-19T08:55:03;0.82;;;0.40;;
60979;SDS011;46851;49.160;8.980;2023-11-19T08:57:34;3.20;;;0.70;;
60979;SDS011;46851;49.160;8.980;2023-11-19T09:00:01;0.65;;;0.50;;
60979;SDS011;46851;49.160;8.980;2023-11-19T09:02:32;0.50;;;0.50;;
60979;SDS011;46851;49.160;8.980;2023-11-19T09:04:58;0.70;;;0.60;;
60979;SDS011;46851;49.160;8.980;2023-11-19T09:07:24;1.60;;;0.80;;
60979;SDS011;46851;49.160;8.980;2023-11-19T09:09:50;0.45;;;0.32;;
60979;SDS011;46851;49.160;8.980;2023-11-19T09:12:16;2.45;;;0.50;;
60979;SDS011;46851;49.160;8.980;2023-11-19T09:14:42;0.32;;;0.32;;
60979;SDS011;46851;49.160;8.980;2023-11-19T09:17:08;1.10;;;0.70;;
60979;SDS011;46851;49.160;8.980;2023-11-19T09:19:35;0.60;;;0.50;;
60979;SDS011;46851;49.160;8.980;2023-11-19T09:22:01;0.73;;;0.60;;
60979;SDS011;46851;49.160;8.980;2023-11-19T09:24:27;0.30;;;0.30;;
60979;SDS011;46851;49.160;8.980;2023-11-19T09:26:53;1.08;;;0.50;;
60979;SDS011;46851;49.160;8.980;2023-11-19T09:29:21;0.68;;;0.43;;
60979;SDS011;46851;49.160;8.980;2023-11-19T09:31:47;1.75;;;0.65;;
60979;SDS011;46851;49.160;8.980;2023-11-19T09:34:13;1.50;;;0.60;;
60979;SDS011;46851;49.160;8.980;2023-11-19T09:36:39;1.10;;;0.65;;
60979;SDS011;46851;49.160;8.980;2023-11-19T09:39:09;1.30;;;0.80;;
60979;SDS011;46851;49.160;8.980;2023-11-19T09:41:35;3.95;;;1.00;;
60979;SDS011;46851;49.160;8.980;2023-11-19T09:44:01;2.60;;;0.57;;
60979;SDS011;46851;49.160;8.980;2023-11-19T09:46:27;1.55;;;0.77;;
60979;SDS011;46851;49.160;8.980;2023-11-19T09:48:54;0.55;;;0.52;;
60979;SDS011;46851;49.160;8.980;2023-11-19T09:51:24;0.73;;;0.52;;
60979;SDS011;46851;49.160;8.980;2023-11-19T09:53:51;1.05;;;0.43;;
60979;SDS011;46851;49.160;8.980;2023-11-19T09:56:17;3.47;;;0.70;;
60979;SDS011;46851;49.160;8.980;2023-11-19T09:58:44;0.50;;;0.50;;
60979;SDS011;46851;49.160;8.980;2023-11-19T10:01:10;2.45;;;0.82;;
60979;SDS011;46851;49.160;8.980;2023-11-19T10:03:37;1.38;;;0.77;;
60979;SDS011;46851;49.160;8.980;2023-11-19T10:06:06;3.92;;;0.50;;
60979;SDS011;46851;49.160;8.980;2023-11-19T10:08:32;1.13;;;0.55;;
60979;SDS011;46851;49.160;8.980;2023-11-19T10:10:58;1.30;;;0.40;;
60979;SDS011;46851;49.160;8.980;2023-11-19T10:13:27;2.80;;;0.50;;
60979;SDS011;46851;49.160;8.980;2023-11-19T10:15:56;1.13;;;0.47;;
60979;SDS011;46851;49.160;8.980;2023-11-19T10:21:34;0.88;;;0.45;;
60979;SDS011;46851;49.160;8.980;2023-11-19T10:24:00;0.52;;;0.40;;
60979;SDS011;46851;49.160;8.980;2023-11-19T10:26:29;5.97;;;0.70;;
60979;SDS011;46851;49.160;8.980;2023-11-19T10:28:56;2.55;;;0.50;;
60979;SDS011;46851;49.160;8.980;2023-11-19T10:31:22;1.27;;;0.80;;
60979;SDS011;46851;49.160;8.980;2023-11-19T10:33:51;3.60;;;0.77;;
60979;SDS011;46851;49.160;8.980;2023-11-19T10:36:17;0.95;;;0.70;;
60979;SDS011;46851;49.160;8.980;2023-11-19T10:38:54;1.25;;;0.60;;
60979;SDS011;46851;49.160;8.980;2023-11-19T10:41:27;1.42;;;0.45;;
60979;SDS011;46851;49.160;8.980;2023-11-19T10:43:53;1.88;;;0.70;;
60979;SDS011;46851;49.160;8.980;2023-11-19T10:46:19;0.77;;;0.50;;
60979;SDS011;46851;49.160;8.980;2023-11-19T10:48:48;1.75;;;0.47;;
60979;SDS011;46851;49.160;8.980;2023-11-19T10:51:15;1.15;;;0.50;;
60979;SDS011;46851;49.160;8.980;2023-11-19T10:53:47;3.28;;;0.70;;
60979;SDS011;46851;49.160;8.980;2023-11-19T10:56:16;2.03;;;0.63;;
60979;SDS011;46851;49.160;8.980;2023-11-19T10:58:44;2.17;;;0.95;;
60979;SDS011;46851;49.160;8.980;2023-11-19T11:01:13;1.25;;;0.55;;
60979;SDS011;46851;49.160;8.980;2023-11-19T11:03:42;2.45;;;0.80;;
60979;SDS011;46851;49.160;8.980;2023-11-19T11:06:08;3.53;;;0.50;;
60979;SDS011;46851;49.160;8.980;2023-11-19T11:08:36;1.90;;;0.50;;
60979;SDS011;46851;49.160;8.980;2023-11-19T11:11:04;1.50;;;0.60;;
60979;SDS011;46851;49.160;8.980;2023-11-19T11:13:31;0.93;;;0.47;;
60979;SDS011;46851;49.160;8.980;2023-11-19T11:15:57;4.28;;;0.70;;
60979;SDS011;46851;49.160;8.980;2023-11-19T11:18:24;0.93;;;0.50;;
60979;SDS011;46851;49.160;8.980;2023-11-19T11:20:51;1.40;;;0.70;;
60979;SDS011;46851;49.160;8.980;2023-11-19T11:25:58;0.80;;;0.70;;
60979;SDS011;46851;49.160;8.980;2023-11-19T11:33:54;0.65;;;0.45;;
60979;SDS011;46851;49.160;8.980;2023-11-19T11:36:23;2.85;;;0.80;;
60979;SDS011;46851;49.160;8.980;2023-11-19T11:38:49;2.85;;;0.70;;
60979;SDS011;46851;49.160;8.980;2023-11-19T11:41:22;1.55;;;0.50;;
60979;SDS011;46851;49.160;8.980;2023-11-19T11:43:50;3.97;;;1.10;;
60979;SDS011;46851;49.160;8.980;2023-11-19T11:49:02;2.40;;;0.80;;
60979;SDS011;46851;49.160;8.980;2023-11-19T11:59:37;1.52;;;1.00;;
60979;SDS011;46851;49.160;8.980;2023-11-19T12:02:03;2.58;;;0.85;;
60979;SDS011;46851;49.160;8.980;2023-11-19T12:04:30;4.30;;;0.90;;
60979;SDS011;46851;49.160;8.980;2023-11-19T12:07:03;0.95;;;0.50;;
60979;SDS011;46851;49.160;8.980;2023-11-19T12:09:29;0.75;;;0.52;;
60979;SDS011;46851;49.160;8.980;2023-11-19T12:15:01;2.45;;;0.82;;
60979;SDS011;46851;49.160;8.980;2023-11-19T12:17:36;1.02;;;0.60;;
60979;SDS011;46851;49.160;8.980;2023-11-19T12:20:05;1.60;;;0.55;;
60979;SDS011;46851;49.160;8.980;2023-11-19T12:22:43;2.17;;;0.70;;
60979;SDS011;46851;49.160;8.980;2023-11-19T12:25:09;5.45;;;0.60;;
60979;SDS011;46851;49.160;8.980;2023-11-19T12:27:37;2.25;;;0.80;;
60979;SDS011;46851;49.160;8.980;2023-11-19T12:30:05;0.82;;;0.60;;
60979;SDS011;46851;49.160;8.980;2023-11-19T12:32:40;2.25;;;0.80;;
60979;SDS011;46851;49.160;8.980;2023-11-19T12:35:06;5.65;;;1.17;;
60979;SDS011;46851;49.160;8.980;2023-11-19T12:37:39;1.58;;;0.77;;
60979;SDS011;46851;49.160;8.980;2023-11-19T12:40:15;1.80;;;1.33;;
60979;SDS011;46851;49.160;8.980;2023-11-19T12:42:45;1.23;;;0.80;;
60979;SDS011;46851;49.160;8.980;2023-11-19T12:45:11;2.65;;;0.85;;
60979;SDS011;46851;49.160;8.980;2023-11-19T12:47:39;3.03;;;0.85;;
60979;SDS011;46851;49.160;8.980;2023-11-19T12:50:08;0.70;;;0.57;;
60979;SDS011;46851;49.160;8.980;2023-11-19T12:52:39;3.17;;;0.80;;
60979;SDS011;46851;49.160;8.980;2023-11-19T12:55:06;2.13;;;0.80;;
60979;SDS011;46851;49.160;8.980;2023-11-19T12:57:53;4.78;;;0.70;;
60979;SDS011;46851;49.160;8.980;2023-11-19T13:00:21;3.85;;;1.10;;
60979;SDS011;46851;49.160;8.980;2023-11-19T13:02:51;1.08;;;0.63;;
60979;SDS011;46851;49.160;8.980;2023-11-19T13:05:30;3.45;;;0.93;;
60979;SDS011;46851;49.160;8.980;2023-11-19T13:08:01;1.80;;;0.70;;
60979;SDS011;46851;49.160;8.980;2023-11-19T13:10:28;1.15;;;0.60;;
60979;SDS011;46851;49.160;8.980;2023-11-19T13:15:26;3.63;;;1.27;;
60979;SDS011;46851;49.160;8.980;2023-11-19T13:17:53;1.08;;;0.80;;
60979;SDS011;46851;49.160;8.980;2023-11-19T13:20:20;2.20;;;0.90;;
60979;SDS011;46851;49.160;8.980;2023-11-19T13:23:02;4.35;;;1.00;;
60979;SDS011;46851;49.160;8.980;2023-11-19T13:25:29;3.88;;;0.80;;
60979;SDS011;46851;49.160;8.980;2023-11-19T13:27:55;4.93;;;0.98;;
60979;SDS011;46851;49.160;8.980;2023-11-19T13:30:22;2.10;;;0.80;;
60979;SDS011;46851;49.160;8.980;2023-11-19T13:32:48;2.83;;;0.70;;
60979;SDS011;46851;49.160;8.980;2023-11-19T13:35:15;1.23;;;0.70;;
60979;SDS011;46851;49.160;8.980;2023-11-19T13:37:42;3.63;;;1.27;;
60979;SDS011;46851;49.160;8.980;2023-11-19T13:40:08;2.40;;;0.90;;
60979;SDS011;46851;49.160;8.980;2023-11-19T13:42:43;1.63;;;0.70;;
60979;SDS011;46851;49.160;8.980;2023-11-19T13:45:10;3.25;;;0.80;;
60979;SDS011;46851;49.160;8.980;2023-11-19T13:47:43;2.97;;;1.00;;
60979;SDS011;46851;49.160;8.980;2023-11-19T13:50:10;2.33;;;0.73;;
60979;SDS011;46851;49.160;8.980;2023-11-19T13:52:37;1.60;;;0.88;;
60979;SDS011;46851;49.160;8.980;2023-11-19T13:55:06;2.13;;;0.80;;
60979;SDS011;46851;49.160;8.980;2023-11-19T13:57:33;3.33;;;0.95;;
60979;SDS011;46851;49.160;8.980;2023-11-19T14:00:00;4.03;;;0.93;;
60979;SDS011;46851;49.160;8.980;2023-11-19T14:02:28;4.18;;;0.73;;
60979;SDS011;46851;49.160;8.980;2023-11-19T14:04:54;2.55;;;0.82;;
60979;SDS011;46851;49.160;8.980;2023-11-19T14:07:25;2.28;;;0.88;;
60979;SDS011;46851;49.160;8.980;2023-11-19T14:09:54;5.03;;;1.50;;
60979;SDS011;46851;49.160;8.980;2023-11-19T14:12:20;3.70;;;0.95;;
60979;SDS011;46851;49.160;8.980;2023-11-19T14:14:47;2.08;;;0.80;;
60979;SDS011;46851;49.160;8.980;2023-11-19T14:17:13;2.15;;;1.27;;
60979;SDS011;46851;49.160;8.980;2023-11-19T14:19:41;2.20;;;1.00;;
60979;SDS011;46851;49.160;8.980;2023-11-19T14:22:08;5.57;;;1.20;;
60979;SDS011;46851;49.160;8.980;2023-11-19T14:24:34;4.72;;;1.33;;
60979;SDS011;46851;49.160;8.980;2023-11-19T14:27:00;4.55;;;1.70;;
60979;SDS011;46851;49.160;8.980;2023-11-19T14:29:27;2.47;;;0.90;;
60979;SDS011;46851;49.160;8.980;2023-11-19T14:31:56;2.67;;;0.77;;
60979;SDS011;46851;49.160;8.980;2023-11-19T14:34:24;4.32;;;1.48;;
60979;SDS011;46851;49.160;8.980;2023-11-19T14:36:51;2.85;;;0.90;;
60979;SDS011;46851;49.160;8.980;2023-11-19T14:39:18;3.63;;;0.93;;
60979;SDS011;46851;49.160;8.980;2023-11-19T14:41:44;5.55;;;1.10;;
60979;SDS011;46851;49.160;8.980;2023-11-19T14:44:11;3.42;;;0.80;;
60979;SDS011;46851;49.160;8.980;2023-11-19T14:46:40;1.65;;;0.93;;
60979;SDS011;46851;49.160;8.980;2023-11-19T14:49:06;5.28;;;1.00;;
60979;SDS011;46851;49.160;8.980;2023-11-19T14:51:38;3.45;;;1.13;;
60979;SDS011;46851;49.160;8.980;2023-11-19T14:54:04;4.28;;;0.73;;
60979;SDS011;46851;49.160;8.980;2023-11-19T14:56:30;2.58;;;1.00;;
60979;SDS011;46851;49.160;8.980;2023-11-19T14:59:00;3.13;;;0.73;;
60979;SDS011;46851;49.160;8.980;2023-11-19T15:01:26;1.98;;;0.85;;
60979;SDS011;46851;49.160;8.980;2023-11-19T15:03:53;1.50;;;0.63;;
60979;SDS011;46851;49.160;8.980;2023-11-19T15:06:23;2.97;;;0.73;;
60979;SDS011;46851;49.160;8.980;2023-11-19T15:08:53;3.72;;;1.20;;
60979;SDS011;46851;49.160;8.980;2023-11-19T15:11:20;1.20;;;0.60;;
60979;SDS011;46851;49.160;8.980;2023-11-19T15:13:46;6.10;;;1.02;;
60979;SDS011;46851;49.160;8.980;2023-11-19T15:16:12;3.95;;;0.90;;
60979;SDS011;46851;49.160;8.980;2023-11-19T15:18:39;3.33;;;1.00;;
60979;SDS011;46851;49.160;8.980;2023-11-19T15:21:06;5.45;;;1.35;;